Olympic Champion — SYWD — position and weather

sailwx.info

Track history (hours):
 
Tides and Currents Weather Stations Pressure Air Temp Water Temp Dewpoint Dewpoint Depression Visibility Wind Speed Wind Dir Waves Ship Positions

Olympic Champion

Last reported at 2017-Nov-19 15:05 UTC. Time now 2017-Nov-20 07:48 UTC.
Position N 44°23' E 013°08'.

Length 204 m; draft 6.4 m.

Type: Ship. MMSI: 237280000.

Date/timePositionNaut miles runAvg speedWind from/ knotsBaromVisibWave heightAir tempDewpointWater temp
2017-Nov-19 15:05N 44°23' E 013°08'222.2
2017-Nov-19 15:00N 44°24' E 013°08'1122.4
2017-Nov-19 14:30N 44°35' E 013°03'1122.4
2017-Nov-19 14:01N 44°45' E 012°57'1121.9
2017-Nov-19 13:31N 44°55' E 012°51'1122.0
2017-Nov-19 13:01N 45°05' E 012°43'1121.2
2017-Nov-19 12:30N 45°11' E 012°31'1020.8
2017-Nov-19 12:00N 45°20' E 012°22'510.6
2017-Nov-19 11:30N 45°22' E 012°15'4 7.8
2017-Nov-19 11:00N 45°25' E 012°15'0 0.0
2017-Nov-19 10:29N 45°25' E 012°15'0 0.0
2017-Nov-19 09:59N 45°25' E 012°15'0 0.0
2017-Nov-19 09:30N 45°25' E 012°15'0 0.0
2017-Nov-19 08:59N 45°25' E 012°15'0 0.0
2017-Nov-19 08:29N 45°25' E 012°15'0 0.0
2017-Nov-19 07:59N 45°25' E 012°15'0 0.0
2017-Nov-19 07:29N 45°25' E 012°15'0 0.0
2017-Nov-19 06:59N 45°25' E 012°15'0 0.0
2017-Nov-19 06:31N 45°25' E 012°15'2 3.4
2017-Nov-19 06:01N 45°24' E 012°16'4 7.4
2017-Nov-19 05:30N 45°20' E 012°18'4 8.4
2017-Nov-19 05:00N 45°19' E 012°24'714.6
2017-Nov-19 04:30N 45°16' E 012°33'1019.6
2017-Nov-19 04:00N 45°11' E 012°45'1019.6
2017-Nov-19 03:30N 45°06' E 012°57'1019.6
2017-Nov-19 03:00N 45°01' E 013°09'1019.5
2017-Nov-19 02:30N 44°56' E 013°21'1019.8
2017-Nov-19 02:00N 44°48' E 013°29'1121.7
2017-Nov-19 01:30N 44°39' E 013°37'1121.9
2017-Nov-19 01:00N 44°30' E 013°46'1121.8
2017-Nov-19 00:30N 44°21' E 013°55'  
2017-Nov-12 23:12N 43°46' E 014°01'526.0
2017-Nov-12 23:00N 43°50' E 013°56'1326.1
2017-Nov-12 22:30N 43°57' E 013°41'1326.1
2017-Nov-12 22:00N 44°05' E 013°26'1325.9
2017-Nov-12 21:30N 44°14' E 013°13'1325.9
2017-Nov-12 21:01N 44°26' E 013°06'1325.7
2017-Nov-12 20:30N 44°38' E 012°60'1325.4
2017-Nov-12 20:01N 44°50' E 012°53'1325.9
2017-Nov-12 19:31N 45°01' E 012°45'1224.8
2017-Nov-12 19:00N 45°10' E 012°33'1223.2
2017-Nov-12 18:30N 45°19' E 012°23'510.7
2017-Nov-12 18:00N 45°21' E 012°15'4 8.4
2017-Nov-12 17:30N 45°25' E 012°15'0 0.0
2017-Nov-12 16:59N 45°25' E 012°15'0 0.0
2017-Nov-12 16:29N 45°25' E 012°15'0 0.0
2017-Nov-12 15:59N 45°25' E 012°15'0 0.0
2017-Nov-12 15:29N 45°25' E 012°15'0 0.0
2017-Nov-12 14:59N 45°25' E 012°15'0 0.0
2017-Nov-12 14:29N 45°25' E 012°15'0 0.0
2017-Nov-12 13:59N 45°25' E 012°15'0 0.0
2017-Nov-12 13:29N 45°25' E 012°15'0 0.2
2017-Nov-12 13:00N 45°25' E 012°16'4 8.1
2017-Nov-12 12:31N 45°22' E 012°15'4 8.9
2017-Nov-12 12:00N 45°20' E 012°21'3 6.1
2017-Nov-12 11:30N 45°22' E 012°24'0 0.1
2017-Nov-12 11:00N 45°22' E 012°24'0 0.0
2017-Nov-12 10:27N 45°22' E 012°24'0 0.1
2017-Nov-12 10:00N 45°22' E 012°24'0 0.0
2017-Nov-12 09:30N 45°22' E 012°24'0 0.0
2017-Nov-12 09:00N 45°22' E 012°24'0 0.0
2017-Nov-12 08:30N 45°22' E 012°24'0 0.0
2017-Nov-12 08:00N 45°22' E 012°24'0 0.0
2017-Nov-12 07:30N 45°22' E 012°24'0 0.0
2017-Nov-12 07:00N 45°22' E 012°24'0 0.0
2017-Nov-12 06:30N 45°22' E 012°24'0 0.0
2017-Nov-12 06:00N 45°22' E 012°24'0 0.0
2017-Nov-12 05:30N 45°22' E 012°24'2 4.0
2017-Nov-12 05:00N 45°20' E 012°24'815.2
2017-Nov-12 04:30N 45°16' E 012°33'1020.0
2017-Nov-12 04:00N 45°10' E 012°45'1020.1
2017-Nov-12 03:30N 45°05' E 012°57'1020.1
2017-Nov-12 03:00N 45°00' E 013°10'1020.1
2017-Nov-12 02:30N 44°56' E 013°22'1121.4
2017-Nov-12 02:00N 44°47' E 013°31'1122.1
2017-Nov-12 01:30N 44°38' E 013°40'1122.0
2017-Nov-12 01:00N 44°28' E 013°48'1122.1
2017-Nov-12 00:30N 44°19' E 013°56'  
Track history (hours):
 
Tides and Currents Weather Stations Pressure Air Temp Water Temp Dewpoint Dewpoint Depression Visibility Wind Speed Wind Dir Waves Ship Positions

Olympic Champion

Last reported at 2017-Nov-19 15:05 UTC. Time now 2017-Nov-20 07:48 UTC.
Position N 44°23' E 013°08'.

Length 204 m; draft 6.4 m.

Type: Ship. MMSI: 237280000.

Date/timePositionNaut miles runAvg speedWind from/ knotsBaromVisibWave heightAir tempDewpointWater temp
2017-Nov-19 15:05N 44°23' E 013°08'222.2
2017-Nov-19 15:00N 44°24' E 013°08'1122.4
2017-Nov-19 14:30N 44°35' E 013°03'1122.4
2017-Nov-19 14:01N 44°45' E 012°57'1121.9
2017-Nov-19 13:31N 44°55' E 012°51'1122.0
2017-Nov-19 13:01N 45°05' E 012°43'1121.2
2017-Nov-19 12:30N 45°11' E 012°31'1020.8
2017-Nov-19 12:00N 45°20' E 012°22'510.6
2017-Nov-19 11:30N 45°22' E 012°15'4 7.8
2017-Nov-19 11:00N 45°25' E 012°15'0 0.0
2017-Nov-19 10:29N 45°25' E 012°15'0 0.0
2017-Nov-19 09:59N 45°25' E 012°15'0 0.0
2017-Nov-19 09:30N 45°25' E 012°15'0 0.0
2017-Nov-19 08:59N 45°25' E 012°15'0 0.0
2017-Nov-19 08:29N 45°25' E 012°15'0 0.0
2017-Nov-19 07:59N 45°25' E 012°15'0 0.0
2017-Nov-19 07:29N 45°25' E 012°15'0 0.0
2017-Nov-19 06:59N 45°25' E 012°15'0 0.0
2017-Nov-19 06:31N 45°25' E 012°15'2 3.4
2017-Nov-19 06:01N 45°24' E 012°16'4 7.4
2017-Nov-19 05:30N 45°20' E 012°18'4 8.4
2017-Nov-19 05:00N 45°19' E 012°24'714.6
2017-Nov-19 04:30N 45°16' E 012°33'1019.6
2017-Nov-19 04:00N 45°11' E 012°45'1019.6
2017-Nov-19 03:30N 45°06' E 012°57'1019.6
2017-Nov-19 03:00N 45°01' E 013°09'1019.5
2017-Nov-19 02:30N 44°56' E 013°21'1019.8
2017-Nov-19 02:00N 44°48' E 013°29'1121.7
2017-Nov-19 01:30N 44°39' E 013°37'1121.9
2017-Nov-19 01:00N 44°30' E 013°46'1121.8
2017-Nov-19 00:30N 44°21' E 013°55'  
2017-Nov-12 23:12N 43°46' E 014°01'526.0
2017-Nov-12 23:00N 43°50' E 013°56'1326.1
2017-Nov-12 22:30N 43°57' E 013°41'1326.1
2017-Nov-12 22:00N 44°05' E 013°26'1325.9
2017-Nov-12 21:30N 44°14' E 013°13'1325.9
2017-Nov-12 21:01N 44°26' E 013°06'1325.7
2017-Nov-12 20:30N 44°38' E 012°60'1325.4
2017-Nov-12 20:01N 44°50' E 012°53'1325.9
2017-Nov-12 19:31N 45°01' E 012°45'1224.8
2017-Nov-12 19:00N 45°10' E 012°33'1223.2
2017-Nov-12 18:30N 45°19' E 012°23'510.7
2017-Nov-12 18:00N 45°21' E 012°15'4 8.4
2017-Nov-12 17:30N 45°25' E 012°15'0 0.0
2017-Nov-12 16:59N 45°25' E 012°15'0 0.0
2017-Nov-12 16:29N 45°25' E 012°15'0 0.0
2017-Nov-12 15:59N 45°25' E 012°15'0 0.0
2017-Nov-12 15:29N 45°25' E 012°15'0 0.0
2017-Nov-12 14:59N 45°25' E 012°15'0 0.0
2017-Nov-12 14:29N 45°25' E 012°15'0 0.0
2017-Nov-12 13:59N 45°25' E 012°15'0 0.0
2017-Nov-12 13:29N 45°25' E 012°15'0 0.2
2017-Nov-12 13:00N 45°25' E 012°16'4 8.1
2017-Nov-12 12:31N 45°22' E 012°15'4 8.9
2017-Nov-12 12:00N 45°20' E 012°21'3 6.1
2017-Nov-12 11:30N 45°22' E 012°24'0 0.1
2017-Nov-12 11:00N 45°22' E 012°24'0 0.0
2017-Nov-12 10:27N 45°22' E 012°24'0 0.1
2017-Nov-12 10:00N 45°22' E 012°24'0 0.0
2017-Nov-12 09:30N 45°22' E 012°24'0 0.0
2017-Nov-12 09:00N 45°22' E 012°24'0 0.0
2017-Nov-12 08:30N 45°22' E 012°24'0 0.0
2017-Nov-12 08:00N 45°22' E 012°24'0 0.0
2017-Nov-12 07:30N 45°22' E 012°24'0 0.0
2017-Nov-12 07:00N 45°22' E 012°24'0 0.0
2017-Nov-12 06:30N 45°22' E 012°24'0 0.0
2017-Nov-12 06:00N 45°22' E 012°24'0 0.0
2017-Nov-12 05:30N 45°22' E 012°24'2 4.0
2017-Nov-12 05:00N 45°20' E 012°24'815.2
2017-Nov-12 04:30N 45°16' E 012°33'1020.0
2017-Nov-12 04:00N 45°10' E 012°45'1020.1
2017-Nov-12 03:30N 45°05' E 012°57'1020.1
2017-Nov-12 03:00N 45°00' E 013°10'1020.1
2017-Nov-12 02:30N 44°56' E 013°22'1121.4
2017-Nov-12 02:00N 44°47' E 013°31'1122.1
2017-Nov-12 01:30N 44°38' E 013°40'1122.0
2017-Nov-12 01:00N 44°28' E 013°48'1122.1
2017-Nov-12 00:30N 44°19' E 013°56'  

Dump ship's entire track history